sensor_id;sensor_type;location;lat;lon;timestamp;pressure;altitude;pressure_sealevel;temperature;humidity
79544;BME280;68994;47.176;7.534;2023-05-20T00:01:39;95972.38;;;11.89;68.58
79544;BME280;68994;47.176;7.534;2023-05-20T00:04:06;96004.50;;;12.10;68.66
79544;BME280;68994;47.176;7.534;2023-05-20T00:06:33;95999.97;;;12.15;68.04
79544;BME280;68994;47.176;7.534;2023-05-20T00:09:00;96002.91;;;12.14;67.60
79544;BME280;68994;47.176;7.534;2023-05-20T00:11:27;95991.66;;;12.06;67.90
79544;BME280;68994;47.176;7.534;2023-05-20T00:13:54;95988.44;;;12.04;68.69
79544;BME280;68994;47.176;7.534;2023-05-20T00:16:22;96001.81;;;12.10;67.82
79544;BME280;68994;47.176;7.534;2023-05-20T00:18:49;95981.78;;;11.97;68.33
79544;BME280;68994;47.176;7.534;2023-05-20T00:21:16;95982.56;;;11.97;68.06
79544;BME280;68994;47.176;7.534;2023-05-20T00:23:42;95990.06;;;12.00;69.41
79544;BME280;68994;47.176;7.534;2023-05-20T00:26:09;95988.72;;;12.03;69.06
79544;BME280;68994;47.176;7.534;2023-05-20T00:28:36;95965.97;;;11.90;68.88
79544;BME280;68994;47.176;7.534;2023-05-20T00:31:03;95978.03;;;12.03;69.55
79544;BME280;68994;47.176;7.534;2023-05-20T00:33:31;95972.41;;;12.04;69.50
79544;BME280;68994;47.176;7.534;2023-05-20T00:35:59;95972.41;;;12.04;70.21
79544;BME280;68994;47.176;7.534;2023-05-20T00:38:26;95967.06;;;11.99;70.32
79544;BME280;68994;47.176;7.534;2023-05-20T00:40:52;95942.97;;;11.79;70.46
79544;BME280;68994;47.176;7.534;2023-05-20T00:43:19;95961.97;;;11.98;69.71
79544;BME280;68994;47.176;7.534;2023-05-20T00:45:47;95961.97;;;12.03;70.72
79544;BME280;68994;47.176;7.534;2023-05-20T00:48:14;95960.13;;;11.98;71.19
79544;BME280;68994;47.176;7.534;2023-05-20T00:50:42;95967.06;;;11.99;70.39
79544;BME280;68994;47.176;7.534;2023-05-20T00:53:09;95965.72;;;11.97;70.36
79544;BME280;68994;47.176;7.534;2023-05-20T00:55:36;95960.13;;;11.98;70.52
79544;BME280;68994;47.176;7.534;2023-05-20T00:58:03;95954.22;;;11.96;71.35
79544;BME280;68994;47.176;7.534;2023-05-20T01:00:30;95954.78;;;11.93;70.78
79544;BME280;68994;47.176;7.534;2023-05-20T01:02:57;95934.16;;;11.78;70.23
79544;BME280;68994;47.176;7.534;2023-05-20T01:05:24;95959.25;;;11.87;70.22
79544;BME280;68994;47.176;7.534;2023-05-20T01:07:52;95938.66;;;11.83;69.38
79544;BME280;68994;47.176;7.534;2023-05-20T01:10:20;95954.78;;;11.98;70.14
79544;BME280;68994;47.176;7.534;2023-05-20T01:12:52;95947.81;;;11.92;69.61
79544;BME280;68994;47.176;7.534;2023-05-20T01:15:21;95939.75;;;11.87;70.25
79544;BME280;68994;47.176;7.534;2023-05-20T01:17:51;95931.75;;;11.82;70.33
79544;BME280;68994;47.176;7.534;2023-05-20T01:20:18;95943.50;;;11.86;70.85
79544;BME280;68994;47.176;7.534;2023-05-20T01:22:48;95948.88;;;12.01;69.67
79544;BME280;68994;47.176;7.534;2023-05-20T01:25:15;95915.44;;;11.78;69.74
79544;BME280;68994;47.176;7.534;2023-05-20T01:27:42;95939.22;;;11.90;70.26
79544;BME280;68994;47.176;7.534;2023-05-20T01:30:09;95941.09;;;11.95;70.17
79544;BME280;68994;47.176;7.534;2023-05-20T01:32:38;95923.44;;;11.88;69.63
79544;BME280;68994;47.176;7.534;2023-05-20T01:35:06;95923.72;;;11.87;69.21
79544;BME280;68994;47.176;7.534;2023-05-20T01:37:35;95924.25;;;11.84;69.88
79544;BME280;68994;47.176;7.534;2023-05-20T01:40:07;95922.63;;;11.83;70.73
79544;BME280;68994;47.176;7.534;2023-05-20T01:42:34;95922.09;;;11.86;70.54
79544;BME280;68994;47.176;7.534;2023-05-20T01:45:02;95935.22;;;11.98;69.49
79544;BME280;68994;47.176;7.534;2023-05-20T01:47:29;95917.84;;;11.85;70.47
79544;BME280;68994;47.176;7.534;2023-05-20T01:49:56;95900.97;;;11.69;71.67
79544;BME280;68994;47.176;7.534;2023-05-20T01:52:23;95937.38;;;11.96;71.81
79544;BME280;68994;47.176;7.534;2023-05-20T01:54:49;95918.91;;;11.84;70.62
79544;BME280;68994;47.176;7.534;2023-05-20T01:57:18;95925.34;;;11.98;70.58
79544;BME280;68994;47.176;7.534;2023-05-20T01:59:46;95920.00;;;11.98;69.80
79544;BME280;68994;47.176;7.534;2023-05-20T02:02:13;95929.34;;;11.96;71.61
79544;BME280;68994;47.176;7.534;2023-05-20T02:04:43;95926.69;;;12.01;71.23
79544;BME280;68994;47.176;7.534;2023-05-20T02:07:12;95918.38;;;11.87;71.81
79544;BME280;68994;47.176;7.534;2023-05-20T02:09:39;95913.56;;;11.84;72.20
79544;BME280;68994;47.176;7.534;2023-05-20T02:12:06;95921.88;;;11.93;72.40
79544;BME280;68994;47.176;7.534;2023-05-20T02:14:35;95908.72;;;11.70;73.48
79544;BME280;68994;47.176;7.534;2023-05-20T02:17:02;95918.38;;;11.66;73.74
79544;BME280;68994;47.176;7.534;2023-05-20T02:19:29;95883.84;;;11.44;73.84
79544;BME280;68994;47.176;7.534;2023-05-20T02:21:55;95924.78;;;11.76;73.37
79544;BME280;68994;47.176;7.534;2023-05-20T02:24:22;95907.38;;;11.63;74.88
79544;BME280;68994;47.176;7.534;2023-05-20T02:26:49;95822.63;;;11.12;73.14
79544;BME280;68994;47.176;7.534;2023-05-20T02:29:18;95902.31;;;11.66;72.36
79544;BME280;68994;47.176;7.534;2023-05-20T02:31:47;95923.19;;;11.80;72.42
79544;BME280;68994;47.176;7.534;2023-05-20T02:34:14;95927.19;;;11.82;72.05
79544;BME280;68994;47.176;7.534;2023-05-20T02:36:41;95926.38;;;11.82;72.00
79544;BME280;68994;47.176;7.534;2023-05-20T02:39:08;95903.13;;;11.67;72.31
79544;BME280;68994;47.176;7.534;2023-05-20T02:41:35;95914.88;;;11.76;72.34
79544;BME280;68994;47.176;7.534;2023-05-20T02:44:01;95915.13;;;11.64;73.60
79544;BME280;68994;47.176;7.534;2023-05-20T02:46:28;95914.06;;;11.70;73.59
79544;BME280;68994;47.176;7.534;2023-05-20T02:48:56;95911.66;;;11.69;73.36
79544;BME280;68994;47.176;7.534;2023-05-20T02:51:23;95913.03;;;11.72;73.54
79544;BME280;68994;47.176;7.534;2023-05-20T02:53:49;95890.81;;;11.56;73.51
79544;BME280;68994;47.176;7.534;2023-05-20T02:56:16;95893.75;;;11.59;73.85
79544;BME280;68994;47.176;7.534;2023-05-20T02:58:45;95906.06;;;11.60;74.46
79544;BME280;68994;47.176;7.534;2023-05-20T03:01:12;95904.16;;;11.56;74.85
79544;BME280;68994;47.176;7.534;2023-05-20T03:03:39;95906.06;;;11.55;73.76
79544;BME280;68994;47.176;7.534;2023-05-20T03:06:07;95910.59;;;11.55;74.58
79544;BME280;68994;47.176;7.534;2023-05-20T03:08:34;95902.84;;;11.53;74.78
79544;BME280;68994;47.176;7.534;2023-05-20T03:11:01;95897.78;;;11.57;74.49
79544;BME280;68994;47.176;7.534;2023-05-20T03:13:27;95902.56;;;11.49;74.22
79544;BME280;68994;47.176;7.534;2023-05-20T03:15:54;95901.75;;;11.39;76.19
79544;BME280;68994;47.176;7.534;2023-05-20T03:18:21;95914.56;;;11.37;75.45
79544;BME280;68994;47.176;7.534;2023-05-20T03:20:48;95915.09;;;11.33;75.04
79544;BME280;68994;47.176;7.534;2023-05-20T03:23:16;95919.91;;;11.31;75.64
79544;BME280;68994;47.176;7.534;2023-05-20T03:25:42;95915.88;;;11.34;75.51
79544;BME280;68994;47.176;7.534;2023-05-20T03:28:09;95895.31;;;11.29;75.50
79544;BME280;68994;47.176;7.534;2023-05-20T03:30:36;95897.75;;;11.46;74.97
79544;BME280;68994;47.176;7.534;2023-05-20T03:33:02;95879.84;;;11.26;75.13
79544;BME280;68994;47.176;7.534;2023-05-20T03:35:30;95890.53;;;11.31;76.48
79544;BME280;68994;47.176;7.534;2023-05-20T03:37:56;95891.56;;;11.25;77.00
79544;BME280;68994;47.176;7.534;2023-05-20T03:40:27;95892.09;;;11.22;76.28
79544;BME280;68994;47.176;7.534;2023-05-20T03:42:53;95891.56;;;11.25;75.95
79544;BME280;68994;47.176;7.534;2023-05-20T03:45:20;95881.41;;;11.17;75.52
79544;BME280;68994;47.176;7.534;2023-05-20T03:47:47;95892.94;;;11.28;75.26
79544;BME280;68994;47.176;7.534;2023-05-20T03:50:14;95882.78;;;11.30;74.91
79544;BME280;68994;47.176;7.534;2023-05-20T03:52:41;95893.72;;;11.33;75.58
79544;BME280;68994;47.176;7.534;2023-05-20T03:55:08;95886.78;;;11.38;74.25
79544;BME280;68994;47.176;7.534;2023-05-20T03:57:37;95891.59;;;11.41;74.83
79544;BME280;68994;47.176;7.534;2023-05-20T04:00:04;95893.75;;;11.44;74.30
79544;BME280;68994;47.176;7.534;2023-05-20T04:02:35;95892.69;;;11.45;75.00
79544;BME280;68994;47.176;7.534;2023-05-20T04:05:03;95890.00;;;11.50;74.86
79544;BME280;68994;47.176;7.534;2023-05-20T04:07:30;95886.25;;;11.51;75.74
79544;BME280;68994;47.176;7.534;2023-05-20T04:09:57;95878.25;;;11.46;75.62
79544;BME280;68994;47.176;7.534;2023-05-20T04:12:23;95887.59;;;11.54;75.36
79544;BME280;68994;47.176;7.534;2023-05-20T04:14:56;95858.47;;;11.31;75.66
79544;BME280;68994;47.176;7.534;2023-05-20T04:17:22;95877.19;;;11.42;75.94
79544;BME280;68994;47.176;7.534;2023-05-20T04:19:49;95897.78;;;11.51;76.30
79544;BME280;68994;47.176;7.534;2023-05-20T04:22:16;95901.22;;;11.52;75.07
79544;BME280;68994;47.176;7.534;2023-05-20T04:24:43;95891.59;;;11.56;76.07
79544;BME280;68994;47.176;7.534;2023-05-20T04:27:10;95896.16;;;11.56;75.75
79544;BME280;68994;47.176;7.534;2023-05-20T04:29:38;95891.63;;;11.61;75.72
79544;BME280;68994;47.176;7.534;2023-05-20T04:32:07;95893.75;;;11.59;76.33
79544;BME280;68994;47.176;7.534;2023-05-20T04:34:35;95871.84;;;11.47;76.42
79544;BME280;68994;47.176;7.534;2023-05-20T04:37:01;95859.00;;;11.33;75.62
79544;BME280;68994;47.176;7.534;2023-05-20T04:39:28;95850.19;;;11.33;76.70
79544;BME280;68994;47.176;7.534;2023-05-20T04:41:55;95880.94;;;11.61;75.53
79544;BME280;68994;47.176;7.534;2023-05-20T04:44:22;95880.38;;;11.59;75.05
79544;BME280;68994;47.176;7.534;2023-05-20T04:46:50;95879.59;;;11.59;75.80
79544;BME280;68994;47.176;7.534;2023-05-20T04:49:19;95868.91;;;11.59;74.73
79544;BME280;68994;47.176;7.534;2023-05-20T04:51:46;95879.84;;;11.73;73.88
79544;BME280;68994;47.176;7.534;2023-05-20T04:54:16;95860.88;;;11.59;74.74
79544;BME280;68994;47.176;7.534;2023-05-20T04:56:44;95884.41;;;11.67;74.62
79544;BME280;68994;47.176;7.534;2023-05-20T04:59:12;95890.81;;;11.71;75.05
79544;BME280;68994;47.176;7.534;2023-05-20T05:01:39;95887.88;;;11.73;74.21
79544;BME280;68994;47.176;7.534;2023-05-20T05:04:06;95876.13;;;11.63;74.37
79544;BME280;68994;47.176;7.534;2023-05-20T05:06:34;95887.88;;;11.78;73.23
79544;BME280;68994;47.176;7.534;2023-05-20T05:09:00;95875.06;;;11.80;73.70
79544;BME280;68994;47.176;7.534;2023-05-20T05:11:27;95851.53;;;11.66;73.06
79544;BME280;68994;47.176;7.534;2023-05-20T05:13:54;95879.34;;;11.96;72.63
79544;BME280;68994;47.176;7.534;2023-05-20T05:16:21;95868.38;;;11.82;72.05
79544;BME280;68994;47.176;7.534;2023-05-20T05:18:47;95880.69;;;11.94;71.19
79544;BME280;68994;47.176;7.534;2023-05-20T05:21:14;95878.81;;;11.99;72.31
79544;BME280;68994;47.176;7.534;2023-05-20T05:23:42;95870.78;;;11.94;72.05
79544;BME280;68994;47.176;7.534;2023-05-20T05:26:09;95870.25;;;11.87;72.54
79544;BME280;68994;47.176;7.534;2023-05-20T05:28:36;95856.06;;;11.81;73.98
79544;BME280;68994;47.176;7.534;2023-05-20T05:31:02;95869.72;;;11.90;73.99
79544;BME280;68994;47.176;7.534;2023-05-20T05:33:30;95865.97;;;11.91;73.73
79544;BME280;68994;47.176;7.534;2023-05-20T05:35:57;95838.97;;;11.72;73.42
79544;BME280;68994;47.176;7.534;2023-05-20T05:38:25;95863.84;;;11.93;73.52
79544;BME280;68994;47.176;7.534;2023-05-20T05:40:53;95859.31;;;11.94;73.16
79544;BME280;68994;47.176;7.534;2023-05-20T05:43:20;95851.00;;;11.90;73.24
79544;BME280;68994;47.176;7.534;2023-05-20T05:45:47;95842.69;;;11.76;73.51
79544;BME280;68994;47.176;7.534;2023-05-20T05:48:13;95839.75;;;11.78;74.66
79544;BME280;68994;47.176;7.534;2023-05-20T05:50:43;95866.53;;;11.93;74.14
79544;BME280;68994;47.176;7.534;2023-05-20T05:53:10;95854.19;;;11.87;73.95
79544;BME280;68994;47.176;7.534;2023-05-20T05:55:36;95865.97;;;11.96;73.78
79544;BME280;68994;47.176;7.534;2023-05-20T05:58:05;95858.25;;;12.00;74.41
79544;BME280;68994;47.176;7.534;2023-05-20T06:00:31;95869.72;;;12.05;74.30
79544;BME280;68994;47.176;7.534;2023-05-20T06:02:58;95863.28;;;12.06;73.44
79544;BME280;68994;47.176;7.534;2023-05-20T06:05:25;95846.19;;;11.97;72.36
79544;BME280;68994;47.176;7.534;2023-05-20T06:07:52;95839.22;;;12.01;72.75
79544;BME280;68994;47.176;7.534;2023-05-20T06:10:18;95867.28;;;12.19;72.29
79544;BME280;68994;47.176;7.534;2023-05-20T06:12:45;95869.41;;;12.22;71.69
79544;BME280;68994;47.176;7.534;2023-05-20T06:15:13;95869.94;;;12.24;72.41
79544;BME280;68994;47.176;7.534;2023-05-20T06:17:40;95857.94;;;12.17;73.15
79544;BME280;68994;47.176;7.534;2023-05-20T06:20:07;95868.88;;;12.31;72.01
79544;BME280;68994;47.176;7.534;2023-05-20T06:22:34;95860.56;;;12.37;73.64
79544;BME280;68994;47.176;7.534;2023-05-20T06:25:01;95835.16;;;12.30;71.73
79544;BME280;68994;47.176;7.534;2023-05-20T06:27:28;95859.47;;;12.49;72.01
79544;BME280;68994;47.176;7.534;2023-05-20T06:29:54;95862.13;;;12.54;72.92
79544;BME280;68994;47.176;7.534;2023-05-20T06:32:22;95804.41;;;12.22;71.72
79544;BME280;68994;47.176;7.534;2023-05-20T06:34:49;95864.50;;;12.60;71.70
79544;BME280;68994;47.176;7.534;2023-05-20T06:37:16;95803.56;;;12.27;72.47
79544;BME280;68994;47.176;7.534;2023-05-20T06:39:42;95852.41;;;12.68;72.16
79544;BME280;68994;47.176;7.534;2023-05-20T06:42:11;95846.50;;;12.71;72.12
79544;BME280;68994;47.176;7.534;2023-05-20T06:44:37;95789.88;;;12.49;71.67
79544;BME280;68994;47.176;7.534;2023-05-20T06:47:04;95827.19;;;12.79;70.48
79544;BME280;68994;47.176;7.534;2023-05-20T06:49:32;95799.38;;;12.75;70.13
79544;BME280;68994;47.176;7.534;2023-05-20T06:51:59;95806.25;;;12.87;71.18
79544;BME280;68994;47.176;7.534;2023-05-20T06:54:25;95765.72;;;12.64;71.20
79544;BME280;68994;47.176;7.534;2023-05-20T06:56:52;95742.53;;;12.44;71.20
79544;BME280;68994;47.176;7.534;2023-05-20T06:59:19;95833.78;;;13.03;70.90
79544;BME280;68994;47.176;7.534;2023-05-20T07:01:48;95835.03;;;13.15;70.18
79544;BME280;68994;47.176;7.534;2023-05-20T07:04:15;95837.41;;;13.17;70.31
79544;BME280;68994;47.176;7.534;2023-05-20T07:06:43;95835.81;;;13.21;70.47
79544;BME280;68994;47.176;7.534;2023-05-20T07:09:10;95792.31;;;12.90;69.66
79544;BME280;68994;47.176;7.534;2023-05-20T07:11:37;95839.25;;;13.27;70.32
79544;BME280;68994;47.176;7.534;2023-05-20T07:14:03;95830.66;;;13.30;70.51
79544;BME280;68994;47.176;7.534;2023-05-20T07:16:30;95820.47;;;13.32;70.12
79544;BME280;68994;47.176;7.534;2023-05-20T07:18:59;95831.09;;;13.47;70.48
79544;BME280;68994;47.176;7.534;2023-05-20T07:21:25;95833.97;;;13.56;69.23
79544;BME280;68994;47.176;7.534;2023-05-20T07:23:54;95832.84;;;13.62;68.69
79544;BME280;68994;47.176;7.534;2023-05-20T07:26:20;95830.38;;;13.71;68.63
79544;BME280;68994;47.176;7.534;2023-05-20T07:28:47;95825.25;;;13.75;68.61
79544;BME280;68994;47.176;7.534;2023-05-20T07:31:14;95824.69;;;13.78;68.60
79544;BME280;68994;47.176;7.534;2023-05-20T07:33:41;95824.91;;;13.81;68.82
79544;BME280;68994;47.176;7.534;2023-05-20T07:36:07;95828.94;;;13.79;68.39
79544;BME280;68994;47.176;7.534;2023-05-20T07:38:34;95830.00;;;13.83;69.11
79544;BME280;68994;47.176;7.534;2023-05-20T07:41:03;95811.56;;;13.76;68.74
79544;BME280;68994;47.176;7.534;2023-05-20T07:43:30;95806.75;;;13.73;70.52
79544;BME280;68994;47.176;7.534;2023-05-20T07:45:57;95824.88;;;13.86;68.87
79544;BME280;68994;47.176;7.534;2023-05-20T07:48:24;95825.94;;;13.85;69.84
79544;BME280;68994;47.176;7.534;2023-05-20T07:50:50;95819.00;;;13.84;68.58
79544;BME280;68994;47.176;7.534;2023-05-20T07:53:17;95819.19;;;13.93;69.07
79544;BME280;68994;47.176;7.534;2023-05-20T07:55:44;95814.16;;;13.86;69.07
79544;BME280;68994;47.176;7.534;2023-05-20T07:58:14;95813.88;;;13.88;68.76
79544;BME280;68994;47.176;7.534;2023-05-20T08:00:41;95795.94;;;13.83;68.21
79544;BME280;68994;47.176;7.534;2023-05-20T08:03:07;95808.22;;;13.89;69.41
79544;BME280;68994;47.176;7.534;2023-05-20T08:05:35;95799.03;;;13.96;67.44
79544;BME280;68994;47.176;7.534;2023-05-20T08:08:02;95795.50;;;14.00;69.93
79544;BME280;68994;47.176;7.534;2023-05-20T08:10:29;95799.72;;;14.06;67.48
79544;BME280;68994;47.176;7.534;2023-05-20T08:12:56;95794.59;;;14.10;68.26
79544;BME280;68994;47.176;7.534;2023-05-20T08:15:24;95793.75;;;14.15;68.25
79544;BME280;68994;47.176;7.534;2023-05-20T08:17:51;95793.56;;;14.30;68.11
79544;BME280;68994;47.176;7.534;2023-05-20T08:20:18;95789.84;;;14.26;66.82
79544;BME280;68994;47.176;7.534;2023-05-20T08:22:45;95795.03;;;14.17;69.05
79544;BME280;68994;47.176;7.534;2023-05-20T08:25:12;95799.72;;;14.31;68.56
79544;BME280;68994;47.176;7.534;2023-05-20T08:27:40;95799.88;;;14.39;68.02
79544;BME280;68994;47.176;7.534;2023-05-20T08:30:08;95781.28;;;14.24;68.28
79544;BME280;68994;47.176;7.534;2023-05-20T08:32:36;95758.66;;;14.06;69.08
79544;BME280;68994;47.176;7.534;2023-05-20T08:35:03;95795.41;;;14.35;67.92
79544;BME280;68994;47.176;7.534;2023-05-20T08:37:30;95758.81;;;14.20;67.66
79544;BME280;68994;47.176;7.534;2023-05-20T08:39:57;95806.75;;;14.51;66.74
79544;BME280;68994;47.176;7.534;2023-05-20T08:42:24;95800.53;;;14.55;67.10
79544;BME280;68994;47.176;7.534;2023-05-20T08:44:52;95796.44;;;14.58;67.30
79544;BME280;68994;47.176;7.534;2023-05-20T08:47:19;95800.94;;;14.43;67.24
79544;BME280;68994;47.176;7.534;2023-05-20T08:49:48;95780.88;;;14.36;67.64
79544;BME280;68994;47.176;7.534;2023-05-20T08:52:17;95798.25;;;14.43;68.69
79544;BME280;68994;47.176;7.534;2023-05-20T08:54:45;95794.00;;;14.37;68.96
79544;BME280;68994;47.176;7.534;2023-05-20T08:57:12;95796.78;;;14.51;67.89
79544;BME280;68994;47.176;7.534;2023-05-20T08:59:41;95793.78;;;14.34;68.23
79544;BME280;68994;47.176;7.534;2023-05-20T09:02:08;95786.81;;;14.33;68.36
79544;BME280;68994;47.176;7.534;2023-05-20T09:04:35;95788.06;;;14.40;68.98
79544;BME280;68994;47.176;7.534;2023-05-20T09:07:03;95799.25;;;14.47;68.42
79544;BME280;68994;47.176;7.534;2023-05-20T09:09:32;95785.69;;;14.39;66.99
79544;BME280;68994;47.176;7.534;2023-05-20T09:11:59;95740.88;;;14.15;67.83
79544;BME280;68994;47.176;7.534;2023-05-20T09:14:27;95779.00;;;14.36;69.20
79544;BME280;68994;47.176;7.534;2023-05-20T09:16:56;95752.16;;;14.12;67.61
79544;BME280;68994;47.176;7.534;2023-05-20T09:19:23;95739.88;;;14.06;68.67
79544;BME280;68994;47.176;7.534;2023-05-20T09:21:51;95743.63;;;14.10;68.46
79544;BME280;68994;47.176;7.534;2023-05-20T09:24:22;95746.09;;;14.25;67.63
79544;BME280;68994;47.176;7.534;2023-05-20T09:26:49;95793.44;;;14.64;68.49
79544;BME280;68994;47.176;7.534;2023-05-20T09:29:16;95784.97;;;14.52;67.63
79544;BME280;68994;47.176;7.534;2023-05-20T09:31:43;95795.84;;;14.42;68.04
79544;BME280;68994;47.176;7.534;2023-05-20T09:34:11;95733.84;;;13.95;69.78
79544;BME280;68994;47.176;7.534;2023-05-20T09:36:39;95789.78;;;14.31;67.92
79544;BME280;68994;47.176;7.534;2023-05-20T09:39:12;95783.63;;;14.55;68.98
79544;BME280;68994;47.176;7.534;2023-05-20T09:41:47;95789.03;;;14.74;69.62
79544;BME280;68994;47.176;7.534;2023-05-20T09:44:15;95786.88;;;14.95;68.93
79544;BME280;68994;47.176;7.534;2023-05-20T09:46:43;95796.16;;;14.83;67.93
79544;BME280;68994;47.176;7.534;2023-05-20T09:49:12;95794.34;;;14.79;69.20
79544;BME280;68994;47.176;7.534;2023-05-20T09:51:40;95783.50;;;14.65;68.36
79544;BME280;68994;47.176;7.534;2023-05-20T09:54:10;95755.13;;;14.35;67.85
79544;BME280;68994;47.176;7.534;2023-05-20T09:56:39;95795.94;;;14.56;67.41
79544;BME280;68994;47.176;7.534;2023-05-20T09:59:09;95791.50;;;14.46;66.42
79544;BME280;68994;47.176;7.534;2023-05-20T10:01:37;95794.59;;;14.58;68.21
79544;BME280;68994;47.176;7.534;2023-05-20T10:04:05;95790.56;;;14.80;68.92
79544;BME280;68994;47.176;7.534;2023-05-20T10:06:45;95792.47;;;14.98;67.74
79544;BME280;68994;47.176;7.534;2023-05-20T10:09:31;95789.50;;;15.00;68.07
79544;BME280;68994;47.176;7.534;2023-05-20T10:12:05;95790.13;;;15.11;66.56
79544;BME280;68994;47.176;7.534;2023-05-20T10:14:48;95764.72;;;15.22;66.02
79544;BME280;68994;47.176;7.534;2023-05-20T10:17:21;95778.41;;;15.39;65.93
79544;BME280;68994;47.176;7.534;2023-05-20T10:19:49;95789.94;;;15.59;65.88
79544;BME280;68994;47.176;7.534;2023-05-20T10:22:25;95794.25;;;15.74;65.39
79544;BME280;68994;47.176;7.534;2023-05-20T10:24:57;95779.44;;;15.76;64.13
79544;BME280;68994;47.176;7.534;2023-05-20T10:27:24;95792.84;;;16.09;65.33
79544;BME280;68994;47.176;7.534;2023-05-20T10:29:54;95788.44;;;16.13;64.03
79544;BME280;68994;47.176;7.534;2023-05-20T10:32:25;95787.16;;;16.25;63.64
79544;BME280;68994;47.176;7.534;2023-05-20T10:34:57;95785.38;;;16.34;62.68
79544;BME280;68994;47.176;7.534;2023-05-20T10:37:26;95784.97;;;16.27;64.63
79544;BME280;68994;47.176;7.534;2023-05-20T10:40:04;95772.69;;;15.93;64.75
79544;BME280;68994;47.176;7.534;2023-05-20T10:42:31;95787.63;;;15.85;64.67
79544;BME280;68994;47.176;7.534;2023-05-20T10:44:59;95783.59;;;15.69;64.62
79544;BME280;68994;47.176;7.534;2023-05-20T10:47:26;95789.06;;;15.45;65.77
79544;BME280;68994;47.176;7.534;2023-05-20T10:49:52;95788.25;;;15.30;66.46
79544;BME280;68994;47.176;7.534;2023-05-20T10:52:19;95789.09;;;15.26;67.14
79544;BME280;68994;47.176;7.534;2023-05-20T10:54:47;95780.19;;;15.11;65.01
79544;BME280;68994;47.176;7.534;2023-05-20T10:57:20;95782.50;;;15.18;65.97
79544;BME280;68994;47.176;7.534;2023-05-20T10:59:47;95794.03;;;15.37;67.02
79544;BME280;68994;47.176;7.534;2023-05-20T11:02:19;95761.44;;;15.58;66.37
79544;BME280;68994;47.176;7.534;2023-05-20T11:04:50;95775.19;;;15.89;64.80
79544;BME280;68994;47.176;7.534;2023-05-20T11:07:24;95778.59;;;16.23;65.72
79544;BME280;68994;47.176;7.534;2023-05-20T11:09:51;95775.06;;;16.64;61.72
79544;BME280;68994;47.176;7.534;2023-05-20T11:12:17;95774.78;;;16.79;61.42
79544;BME280;68994;47.176;7.534;2023-05-20T11:14:47;95771.25;;;16.79;62.45
79544;BME280;68994;47.176;7.534;2023-05-20T11:17:14;95769.69;;;16.78;61.55
79544;BME280;68994;47.176;7.534;2023-05-20T11:19:43;95758.72;;;16.74;61.91
79544;BME280;68994;47.176;7.534;2023-05-20T11:22:09;95770.47;;;16.78;61.75
79544;BME280;68994;47.176;7.534;2023-05-20T11:24:36;95770.69;;;16.68;61.79
79544;BME280;68994;47.176;7.534;2023-05-20T11:27:03;95766.50;;;16.62;62.00
79544;BME280;68994;47.176;7.534;2023-05-20T11:29:30;95774.72;;;16.43;63.79
79544;BME280;68994;47.176;7.534;2023-05-20T11:31:58;95754.38;;;16.23;64.08
79544;BME280;68994;47.176;7.534;2023-05-20T11:34:31;95757.16;;;16.18;64.93
79544;BME280;68994;47.176;7.534;2023-05-20T11:36:59;95739.41;;;16.17;64.89
79544;BME280;68994;47.176;7.534;2023-05-20T11:39:28;95726.66;;;16.08;62.88
79544;BME280;68994;47.176;7.534;2023-05-20T11:41:58;95752.28;;;16.20;63.94
79544;BME280;68994;47.176;7.534;2023-05-20T11:44:26;95749.78;;;16.23;63.70
79544;BME280;68994;47.176;7.534;2023-05-20T11:46:59;95758.06;;;16.13;64.92
79544;BME280;68994;47.176;7.534;2023-05-20T11:49:27;95753.66;;;16.17;64.10
79544;BME280;68994;47.176;7.534;2023-05-20T11:51:55;95746.59;;;16.07;63.95
79544;BME280;68994;47.176;7.534;2023-05-20T11:54:23;95745.19;;;16.10;66.04
79544;BME280;68994;47.176;7.534;2023-05-20T11:56:50;95752.38;;;16.14;65.21
79544;BME280;68994;47.176;7.534;2023-05-20T11:59:19;95739.41;;;16.17;67.13
79544;BME280;68994;47.176;7.534;2023-05-20T12:01:46;95744.41;;;16.23;64.09
79544;BME280;68994;47.176;7.534;2023-05-20T12:04:12;95747.81;;;16.29;63.90
79544;BME280;68994;47.176;7.534;2023-05-20T12:06:40;95738.19;;;16.37;64.90
79544;BME280;68994;47.176;7.534;2023-05-20T12:09:09;95734.50;;;16.46;62.82
79544;BME280;68994;47.176;7.534;2023-05-20T12:11:38;95734.00;;;16.44;64.37
79544;BME280;68994;47.176;7.534;2023-05-20T12:14:05;95744.97;;;16.48;62.83
79544;BME280;68994;47.176;7.534;2023-05-20T12:16:33;95738.81;;;16.47;63.86
79544;BME280;68994;47.176;7.534;2023-05-20T12:19:00;95734.13;;;16.39;64.29
79544;BME280;68994;47.176;7.534;2023-05-20T12:21:28;95735.41;;;16.28;63.73
79544;BME280;68994;47.176;7.534;2023-05-20T12:23:55;95742.69;;;16.41;64.38
79544;BME280;68994;47.176;7.534;2023-05-20T12:26:22;95740.31;;;16.40;65.06
79544;BME280;68994;47.176;7.534;2023-05-20T12:28:50;95746.59;;;16.49;67.75
79544;BME280;68994;47.176;7.534;2023-05-20T12:31:17;95750.63;;;16.60;66.04
79544;BME280;68994;47.176;7.534;2023-05-20T12:33:44;95746.94;;;16.70;64.17
79544;BME280;68994;47.176;7.534;2023-05-20T12:36:13;95737.34;;;16.78;64.86
79544;BME280;68994;47.176;7.534;2023-05-20T12:38:40;95739.06;;;16.87;64.83
79544;BME280;68994;47.176;7.534;2023-05-20T12:41:07;95734.75;;;16.86;62.72
79544;BME280;68994;47.176;7.534;2023-05-20T12:43:34;95741.31;;;16.94;62.29
79544;BME280;68994;47.176;7.534;2023-05-20T12:46:02;95738.53;;;16.99;61.63
79544;BME280;68994;47.176;7.534;2023-05-20T12:48:30;95722.16;;;16.82;62.32
79544;BME280;68994;47.176;7.534;2023-05-20T12:50:56;95719.69;;;16.85;61.70
79544;BME280;68994;47.176;7.534;2023-05-20T12:53:23;95724.41;;;16.66;65.63
79544;BME280;68994;47.176;7.534;2023-05-20T12:55:50;95733.53;;;16.79;63.67
79544;BME280;68994;47.176;7.534;2023-05-20T12:58:17;95730.06;;;16.78;63.45
79544;BME280;68994;47.176;7.534;2023-05-20T13:00:43;95729.56;;;16.90;62.31
79544;BME280;68994;47.176;7.534;2023-05-20T13:03:13;95707.53;;;16.74;61.50